createdAt,value
2022-10-05T00:01:24.686Z,98958.176601341
2022-10-05T00:04:19.516Z,98958.74376043271
2022-10-05T00:07:19.181Z,98961.14135783432
2022-10-05T00:11:16.655Z,98959.26075122792
2022-10-05T00:14:19.319Z,98957.81514622095
2022-10-05T00:17:20.536Z,98953.92553427484
2022-10-05T00:21:21.389Z,98954.15180019692
2022-10-05T00:24:19.403Z,98959.43846709337
2022-10-05T00:27:19.456Z,98959.54075445846
2022-10-05T00:31:18.861Z,98964.5711210249
2022-10-05T00:34:17.404Z,98967.05829069851
2022-10-05T00:37:17.638Z,98970.17312218605
2022-10-05T00:41:23.572Z,98969.53397784791
2022-10-05T00:44:31.351Z,98970.1285371579
2022-10-05T00:47:32.621Z,98966.13597144169
2022-10-05T00:51:24.165Z,98966.75487802539
2022-10-05T00:54:28.904Z,98971.704751217
2022-10-05T00:57:29.359Z,98975.0352794008
2022-10-05T01:01:21.352Z,98968.06832872241
2022-10-05T01:04:25.774Z,98962.90512603828
2022-10-05T01:07:30.113Z,98962.72367847331
2022-10-05T01:11:24.937Z,98964.56618804562
2022-10-05T01:14:26.577Z,98962.75061065776
2022-10-05T01:17:25.112Z,98962.07082916223
2022-10-05T01:21:20.197Z,98958.37825682099
2022-10-05T01:24:33.786Z,98966.07618506848
2022-10-05T01:27:56.651Z,98966.54321042789
2022-10-05T01:31:24.760Z,98963.19856735488
2022-10-05T01:34:25.943Z,98966.75695819117
2022-10-05T01:37:26.371Z,98960.86525474065
2022-10-05T01:41:28.983Z,98964.36218713358
2022-10-05T01:44:25.082Z,98964.96896231973
2022-10-05T01:47:24.591Z,98967.6685102838
2022-10-05T01:51:21.829Z,98959.24473250718
2022-10-05T01:54:28.665Z,98962.15642909809
2022-10-05T01:57:29.355Z,98958.91874822737
2022-10-05T02:01:24.208Z,98953.63300836302
2022-10-05T02:04:56.508Z,98955.15056379433
2022-10-05T02:07:22.418Z,98955.47948003217
2022-10-05T02:11:16.148Z,98962.61669015954
2022-10-05T02:14:22.436Z,98962.81209373874
2022-10-05T02:17:21.069Z,98963.3870168158
2022-10-05T02:21:17.517Z,98959.08801402953
2022-10-05T02:24:21.826Z,98960.68031361292
2022-10-05T02:27:22.325Z,98959.08098527225
2022-10-05T02:31:21.346Z,98956.03215444964
2022-10-05T02:34:21.991Z,98951.05085711865
2022-10-05T02:37:27.702Z,98953.78560518406
2022-10-05T02:41:27.938Z,98955.64845705019
2022-10-05T02:44:28.310Z,98958.81587978527
2022-10-05T02:47:25.299Z,98960.58175695862
2022-10-05T02:51:23.355Z,98953.87132227748
2022-10-05T02:54:33.425Z,98958.43951331954
2022-10-05T02:57:26.092Z,98955.33442851697
2022-10-05T03:01:25.655Z,98962.51110091871
2022-10-05T03:04:28.380Z,98965.59252989739
2022-10-05T03:07:22.845Z,98959.78914263262
2022-10-05T03:11:25.189Z,98958.51815435635
2022-10-05T03:14:23.065Z,98952.1419397703
2022-10-05T03:17:19.069Z,98948.03293573757
2022-10-05T03:21:31.666Z,98946.55364194686
2022-10-05T03:24:40.826Z,98948.095396596
2022-10-05T03:27:27.967Z,98946.88086835625
2022-10-05T03:31:24.860Z,98948.05403343495
2022-10-05T03:34:25.490Z,98947.02526834092
2022-10-05T03:37:22.598Z,98949.73825589413
2022-10-05T03:41:20.632Z,98944.37753034908
2022-10-05T03:44:29.335Z,98945.9274759218
2022-10-05T03:47:24.754Z,98948.83037737172
2022-10-05T03:51:24.058Z,98946.58012392542
2022-10-05T03:54:23.808Z,98941.8565559504
2022-10-05T03:57:20.996Z,98939.36144905057
2022-10-05T04:01:21.813Z,98945.35392940932
2022-10-05T04:04:23.198Z,98942.52835050825
2022-10-05T04:07:27.176Z,98939.72392225314
2022-10-05T04:11:20.928Z,98943.22134615453
2022-10-05T04:14:23.387Z,98934.43524834048
2022-10-05T04:17:30.866Z,98939.69197000054
2022-10-05T04:21:23.906Z,98938.60386386918
2022-10-05T04:24:24.018Z,98939.90426456135
2022-10-05T04:27:21.176Z,98950.35085688971
2022-10-05T04:31:32.951Z,98954.43572196353
2022-10-05T04:34:38.878Z,98954.85949071158
2022-10-05T04:37:23.133Z,98957.5349230789
2022-10-05T04:41:32.113Z,98962.02102993896
2022-10-05T04:44:32.256Z,98965.13185705392
2022-10-05T04:47:33.423Z,98972.00536056391
2022-10-05T04:51:27.375Z,98977.09181319989
2022-10-05T04:54:29.876Z,98975.95622616675
2022-10-05T04:57:23.789Z,98971.80930017988
2022-10-05T05:01:33.296Z,98970.84279775678
2022-10-05T05:04:34.771Z,98975.89987936047
2022-10-05T05:07:32.619Z,98975.65324425812
2022-10-05T05:11:26.188Z,98979.82905685208
2022-10-05T05:14:38.317Z,98981.33051041355
2022-10-05T05:17:32.637Z,98989.71768474221
2022-10-05T05:21:29.063Z,98986.03264510218
2022-10-05T05:24:24.928Z,98984.16459021815
2022-10-05T05:27:35.306Z,98980.00116057726
2022-10-05T05:31:33.750Z,98980.04128074908
2022-10-05T05:34:34.226Z,98979.3404852579
2022-10-05T05:37:25.105Z,98982.55367227469
2022-10-05T05:41:23.863Z,98989.62163909589
2022-10-05T05:44:23.007Z,98992.29217848451
2022-10-05T05:47:21.483Z,98992.62201289731
2022-10-05T05:51:20.197Z,98991.86530941134
2022-10-05T05:54:26.886Z,98993.9149301052
2022-10-05T05:57:22.909Z,98992.56821280041
2022-10-05T06:01:32.877Z,98991.72662812026
2022-10-05T06:04:21.978Z,98996.22225716231
2022-10-05T06:07:28.063Z,98992.14351091538
2022-10-05T06:11:20.994Z,98995.56172650664
2022-10-05T06:14:27.465Z,99003.82037866556
2022-10-05T06:17:21.067Z,99001.61469198948
2022-10-05T06:21:23.485Z,99010.71367761881
2022-10-05T06:24:21.392Z,99015.71943890816
2022-10-05T06:27:24.289Z,99013.52420295586
2022-10-05T06:31:32.232Z,99011.44454554413
2022-10-05T06:34:39.877Z,99015.30581447673
2022-10-05T06:37:33.245Z,99016.25049683242
2022-10-05T06:41:25.748Z,99008.89395359703
2022-10-05T06:44:25.583Z,99006.59001032861
2022-10-05T06:47:28.133Z,99004.914176153
2022-10-05T06:51:25.872Z,99005.08552913165
2022-10-05T06:54:32.359Z,99012.95297994946
2022-10-05T06:57:42.522Z,99012.29019386711
2022-10-05T07:01:26.052Z,99012.58861715776
2022-10-05T07:04:36.792Z,99017.35479541392
2022-10-05T07:07:23.026Z,99018.73903324455
2022-10-05T07:11:32.211Z,99023.13976246474
2022-10-05T07:14:29.674Z,99024.49601675943
2022-10-05T07:17:29.180Z,99022.77767551558
2022-10-05T07:21:26.823Z,99022.66572096467
2022-10-05T07:24:29.347Z,99023.91652652004
2022-10-05T07:27:20.156Z,99026.73599401335
2022-10-05T07:31:28.760Z,99030.21418908474
2022-10-05T07:34:31.299Z,99025.562474788
2022-10-05T07:38:30.254Z,99028.46216875044
2022-10-05T07:41:24.857Z,99023.59528328422
2022-10-05T07:44:24.160Z,99023.85998872023
2022-10-05T07:47:26.969Z,99027.59538741798
2022-10-05T07:51:24.365Z,99027.69503594584
2022-10-05T07:54:21.325Z,99027.51181598502
2022-10-05T07:57:23.211Z,99026.86123638038
2022-10-05T08:01:24.759Z,99024.9776996434
2022-10-05T08:04:23.310Z,99022.15566627051
2022-10-05T08:07:28.530Z,99026.33712388792
2022-10-05T08:11:21.118Z,99027.67333517745
2022-10-05T08:14:27.630Z,99027.85475501548
2022-10-05T08:17:25.697Z,99032.05825517297
2022-10-05T08:21:22.134Z,99032.65851128518
2022-10-05T08:24:33.272Z,99035.24400652506
2022-10-05T08:27:22.818Z,99039.91679139675
2022-10-05T08:31:21.986Z,99045.82829086485
2022-10-05T08:34:26.131Z,99045.88735025939
2022-10-05T08:37:21.649Z,99051.41648629216
2022-10-05T08:42:02.148Z,99050.73999046108
2022-10-05T09:01:30.303Z,99062.22035523668
2022-10-05T09:04:32.043Z,99059.84833359622
2022-10-05T09:07:36.633Z,99063.26233095344
2022-10-05T09:11:24.040Z,99068.35959371655
2022-10-05T09:14:30.402Z,99072.35502458419
2022-10-05T09:17:29.121Z,99071.68770487652
2022-10-05T09:21:30.365Z,99073.13798096564
2022-10-05T09:24:26.390Z,99073.39733837132
2022-10-05T09:27:18.814Z,99073.85210501456
2022-10-05T09:31:51.739Z,99078.65509905231
2022-10-05T09:35:03.781Z,99071.16371619396
2022-10-05T09:37:37.580Z,99076.87416923224
2022-10-05T09:41:36.588Z,99078.49875097287
2022-10-05T09:44:41.201Z,99077.3923993163
2022-10-05T09:52:45.594Z,99074.41012867182
2022-10-05T09:55:28.767Z,99082.6109400008
2022-10-05T09:57:49.314Z,99079.01615362939
2022-10-05T10:01:33.603Z,99075.94881758843
2022-10-05T10:04:26.562Z,99078.33043387865
2022-10-05T10:07:30.759Z,99081.89513338423
2022-10-05T10:11:28.299Z,99077.3021421463
2022-10-05T10:14:39.047Z,99081.56897350824
2022-10-05T10:17:35.949Z,99078.32536252268
2022-10-05T10:21:47.700Z,99083.48292646055
2022-10-05T10:24:30.864Z,99079.20751240713
2022-10-05T10:27:35.299Z,99081.53175782556
2022-10-05T10:31:41.630Z,99080.48633940669
2022-10-05T10:36:03.027Z,99081.48112147322
2022-10-05T10:37:35.993Z,99081.56558771855
2022-10-05T10:51:23.896Z,99078.5108951553
2022-10-05T10:55:26.317Z,99080.24591722693
2022-10-05T10:57:24.650Z,99078.38665954534
2022-10-05T11:01:32.020Z,99076.83155806205
2022-10-05T11:04:32.901Z,99073.52957864512
2022-10-05T11:07:49.308Z,99072.22058957077
2022-10-05T11:11:32.286Z,99067.26094744168
2022-10-05T11:14:53.399Z,99065.49187918515
2022-10-05T11:17:56.387Z,99062.00721404172
2022-10-05T11:21:25.289Z,99057.42401082614
2022-10-05T11:24:41.459Z,99050.49883756507
2022-10-05T11:27:49.144Z,99051.04430073977
2022-10-05T11:31:38.551Z,99043.97194947409
2022-10-05T11:51:29.646Z,99032.92194902497
2022-10-05T11:55:14.300Z,99033.06864595415
2022-10-05T11:57:22.799Z,99030.29351543264
2022-10-05T12:01:29.335Z,99015.75765980306
2022-10-05T12:04:27.729Z,99016.60103875752
2022-10-05T12:07:29.624Z,99019.00503541096
2022-10-05T12:11:41.590Z,99012.79763962525
2022-10-05T12:14:27.042Z,99017.9720370066
2022-10-05T12:17:25.682Z,99011.40108139276
2022-10-05T12:21:28.094Z,99008.6082984225
2022-10-05T12:24:26.999Z,99015.93294430582
2022-10-05T12:27:22.269Z,99017.89126048065
2022-10-05T12:31:29.820Z,98999.81689695736
2022-10-05T12:34:34.765Z,99001.69727430311
2022-10-05T12:37:42.635Z,98995.19217740976
2022-10-05T12:41:21.742Z,98995.25849749653
2022-10-05T12:44:24.585Z,98997.81273700164
2022-10-05T12:47:26.538Z,98998.66555943702
2022-10-05T12:51:21.575Z,98993.4291613077
2022-10-05T12:54:24.454Z,98996.33147414561
2022-10-05T12:57:25.893Z,98991.65490647644
2022-10-05T13:01:27.790Z,98984.92204404865
2022-10-05T13:04:30.412Z,98983.36730299648
2022-10-05T13:07:48.139Z,98981.86888054515
2022-10-05T13:11:25.643Z,98982.65580738218
2022-10-05T13:14:35.845Z,98984.0923640975
2022-10-05T13:17:29.963Z,98978.43004970347
2022-10-05T13:21:20.613Z,98980.64382660527
2022-10-05T13:24:22.112Z,98981.23717723122
2022-10-05T13:27:22.724Z,98976.62997245995
2022-10-05T13:31:26.114Z,98969.69475072056
2022-10-05T13:34:27.193Z,98969.37896241709
2022-10-05T13:37:26.862Z,98969.60130507227
2022-10-05T13:41:27.470Z,98969.41777136928
2022-10-05T13:44:31.127Z,98967.37678920121
2022-10-05T13:47:28.685Z,98969.81040738331
2022-10-05T13:51:22.869Z,98975.02521416247
2022-10-05T13:54:26.976Z,98970.95837199807
2022-10-05T13:57:38.540Z,98964.62981009127
2022-10-05T14:01:39.409Z,98964.61060402007
2022-10-05T14:04:23.350Z,98962.560927869
2022-10-05T14:07:29.281Z,98960.453951985
2022-10-05T14:11:23.951Z,98958.80938639851
2022-10-05T14:14:24.363Z,98962.6706014762
2022-10-05T14:17:36.579Z,98954.77988239704
2022-10-05T14:21:20.448Z,98957.51844946758
2022-10-05T14:27:23.101Z,98955.91181823277
2022-10-05T14:31:27.998Z,98960.1632917908
2022-10-05T14:34:34.551Z,98960.21423372756
2022-10-05T14:37:20.581Z,98962.04906990059
2022-10-05T14:41:18.967Z,98963.89720213762
2022-10-05T14:44:28.326Z,98959.82036546445
2022-10-05T14:47:21.692Z,98958.77188461281
2022-10-05T14:51:26.151Z,98957.61872520867
2022-10-05T14:54:26.321Z,98958.01369067526
2022-10-05T14:57:26.774Z,98952.56299547406
2022-10-05T15:01:25.289Z,98946.24268967954
2022-10-05T15:04:33.016Z,98950.83036790804
2022-10-05T15:07:24.092Z,98951.93856004196
2022-10-05T15:11:29.188Z,98953.79993798643
2022-10-05T15:14:21.767Z,98952.36881628555
2022-10-05T15:17:20.031Z,98949.81284438056
2022-10-05T15:21:35.408Z,98949.48124009481
2022-10-05T15:24:21.508Z,98948.50546297795
2022-10-05T15:27:24.288Z,98953.86293447176
2022-10-05T15:31:29.282Z,98951.44571968289
2022-10-05T15:34:24.904Z,98954.8500828222
2022-10-05T15:37:25.093Z,98957.3148586701
2022-10-05T15:41:22.866Z,98960.99049698687
2022-10-05T15:44:28.818Z,98954.8841066397
2022-10-05T15:47:22.401Z,98957.07618404622
2022-10-05T15:51:27.643Z,98959.93326727244
2022-10-05T15:55:57.306Z,98959.72757312663
2022-10-05T15:57:24.498Z,98961.61785554013
2022-10-05T16:01:22.591Z,98968.45879257855
2022-10-05T16:04:25.080Z,98967.99256271211
2022-10-05T16:11:29.047Z,98971.30144236897
2022-10-05T16:14:33.710Z,98977.33322121487
2022-10-05T16:17:30.859Z,98979.64784792275
2022-10-05T16:21:26.170Z,98985.0275996824
2022-10-05T16:24:38.783Z,98985.53662690017
2022-10-05T16:27:29.483Z,98987.6121950178
2022-10-05T16:31:25.838Z,98993.73661600443
2022-10-05T16:34:31.439Z,98996.4097061652
2022-10-05T16:37:26.023Z,99002.75117613381
2022-10-05T16:41:27.658Z,99011.82934676169
2022-10-05T16:44:27.539Z,99016.13697996612
2022-10-05T16:48:00.321Z,99015.2328809208
2022-10-05T16:51:29.070Z,99024.2004473637
2022-10-05T16:54:22.398Z,99024.0854435598
2022-10-05T16:57:21.718Z,99021.34416800656
2022-10-05T17:01:33.082Z,99022.593914537
2022-10-05T17:04:31.410Z,99028.43089815084
2022-10-05T17:07:37.972Z,99027.12697211374
2022-10-05T17:11:32.057Z,99037.02034307634
2022-10-05T17:14:30.941Z,99042.57365248863
2022-10-05T17:17:47.804Z,99046.41036486304
2022-10-05T17:21:24.812Z,99051.01179535472
2022-10-05T17:24:35.510Z,99061.62085072118
2022-10-05T17:27:28.037Z,99061.20164486473
2022-10-05T17:31:20.279Z,99064.31618969199
2022-10-05T17:34:30.222Z,99061.79029113568
2022-10-05T17:37:32.077Z,99066.31122252683
2022-10-05T17:41:22.778Z,99071.87185948688
2022-10-05T17:44:24.179Z,99078.34495859365
2022-10-05T17:47:54.288Z,99079.42139949035
2022-10-05T18:01:25.467Z,99088.04824801872
2022-10-05T18:04:28.140Z,99085.05991836074
2022-10-05T18:07:20.797Z,99086.35568414305
2022-10-05T18:11:37.221Z,99083.61068296642
2022-10-05T18:14:20.867Z,99086.53971432988
2022-10-05T18:17:36.087Z,99090.70094025474
2022-10-05T18:21:37.776Z,99090.49186647945
2022-10-05T18:25:18.484Z,99094.01321914319
2022-10-05T18:27:37.693Z,99093.92337235222
2022-10-05T18:31:30.358Z,99095.50922909632
2022-10-05T18:34:29.899Z,99098.99458905599
2022-10-05T18:37:30.159Z,99096.49154936482
2022-10-05T18:41:27.028Z,99088.07078543914
2022-10-05T18:44:30.859Z,99094.12297743272
2022-10-05T18:47:26.140Z,99094.32490799089
2022-10-05T18:51:23.790Z,99090.31762433233
2022-10-05T18:54:32.575Z,99091.48650489732
2022-10-05T18:58:25.449Z,99096.52520537813
2022-10-05T19:01:39.474Z,99104.87797168143
2022-10-05T19:04:26.771Z,99103.25643207664
2022-10-05T19:07:28.351Z,99106.63729399562
2022-10-05T19:11:24.601Z,99114.35466025605
2022-10-05T19:14:26.818Z,99109.48467086647
2022-10-05T19:17:25.016Z,99116.0583904623
2022-10-05T19:21:28.019Z,99112.37562278715
2022-10-05T19:24:42.861Z,99120.62013871859
2022-10-05T19:27:26.117Z,99125.2130311103
2022-10-05T19:31:28.698Z,99126.9237194511
2022-10-05T19:34:32.385Z,99124.21529682686
2022-10-05T19:37:26.001Z,99132.45934130739
2022-10-05T19:41:20.919Z,99137.78406673389
2022-10-05T19:44:30.470Z,99134.80245445734
2022-10-05T19:47:38.878Z,99137.00057808838
2022-10-05T19:51:27.860Z,99143.27902256988
2022-10-05T19:54:22.426Z,99140.64548044383
2022-10-05T19:57:18.227Z,99137.65129105064
2022-10-05T20:01:24.572Z,99141.04350660069
2022-10-05T20:04:32.514Z,99143.96545557458
2022-10-05T20:07:18.929Z,99145.0855233612
2022-10-05T20:11:17.744Z,99142.37569298343
2022-10-05T20:14:20.038Z,99140.92601503055
2022-10-05T20:21:49.929Z,99143.76470614811
2022-10-05T20:24:18.781Z,99140.78594421363
2022-10-05T20:27:35.581Z,99137.40763932766
2022-10-05T20:31:20.661Z,99134.40526049824
2022-10-05T20:34:18.406Z,99139.51383519727
2022-10-05T20:37:18.755Z,99141.23434036376
2022-10-05T20:41:16.805Z,99142.63932804769
2022-10-05T20:44:18.313Z,99142.86029249414
2022-10-05T20:47:17.554Z,99144.68796526291
2022-10-05T20:51:17.219Z,99140.75085026489
2022-10-05T20:54:19.961Z,99139.76250062032
2022-10-05T20:57:16.431Z,99139.47330458359
2022-10-05T21:01:19.721Z,99149.5268637524
2022-10-05T21:04:19.812Z,99146.52320955753
2022-10-05T21:07:18.420Z,99140.84664043061
2022-10-05T21:11:17.494Z,99145.45711918255
2022-10-05T21:14:17.796Z,99145.99123106604
2022-10-05T21:17:16.961Z,99150.18797353808
2022-10-05T21:21:18.295Z,99148.23954273514
2022-10-05T21:24:18.803Z,99144.2707432132
2022-10-05T21:27:17.034Z,99146.15002119532
2022-10-05T21:31:16.294Z,99145.06351588463
2022-10-05T21:34:17.737Z,99144.37854028311
2022-10-05T21:37:20.421Z,99148.11709041726
2022-10-05T21:41:17.522Z,99143.5829569956
2022-10-05T21:44:17.247Z,99141.40236444114
2022-10-05T21:47:16.968Z,99141.2871708306
2022-10-05T21:51:18.236Z,99136.66481658608
2022-10-05T21:54:20.457Z,99133.94065401534
2022-10-05T21:57:17.203Z,99133.82967985618
2022-10-05T22:01:21.490Z,99138.03849936901
